Time;durP1;ratioP1;P1;durP2;ratioP2;P2;SDS_P1;SDS_P2;PMS_P1;PMS_P2;Temp;Humidity;BMP_temperature;BMP_pressure;BME280_temperature;BME280_humidity;BME280_pressure;Samples;Min_cycle;Max_cycle;Signal;HPM_P1;HPM_P2
2023/10/11 00:02:55;;;;;;;2.67;0.85;;;15.90;99.90;;;;;;4965811;28;20035;-87
2023/10/11 00:05:22;;;;;;;3.75;0.80;;;16.00;99.90;;;;;;4964948;28;20391;-85
2023/10/11 00:07:48;;;;;;;3.45;1.05;;;16.00;99.90;;;;;;4951713;28;20031;-86
2023/10/11 00:10:19;;;;;;;2.80;0.82;;;16.00;99.90;;;;;;4963726;28;20023;-85
2023/10/11 00:12:46;;;;;;;2.35;0.90;;;16.00;99.90;;;;;;4964794;28;20514;-85
2023/10/11 00:15:11;;;;;;;4.00;0.90;;;15.90;99.90;;;;;;4964314;28;21008;-85
2023/10/11 00:17:37;;;;;;;3.22;1.10;;;16.00;99.90;;;;;;4949767;28;20093;-86
2023/10/11 00:22:48;;;;;;;3.25;1.00;;;16.10;99.90;;;;;;4965354;28;20062;-85
2023/10/11 00:25:23;;;;;;;2.10;0.68;;;16.00;99.90;;;;;;4949567;28;20039;-85
2023/10/11 00:27:50;;;;;;;3.05;0.75;;;16.00;99.90;;;;;;4951010;28;20567;-85
2023/10/11 00:30:17;;;;;;;2.53;0.70;;;15.90;99.90;;;;;;4965817;28;20023;-85
2023/10/11 00:32:46;;;;;;;4.38;0.70;;;15.90;99.90;;;;;;4948245;28;20023;-85
2023/10/11 00:35:18;;;;;;;2.95;1.10;;;15.90;99.90;;;;;;4967055;28;20035;-85
2023/10/11 00:37:51;;;;;;;2.90;0.80;;;15.90;99.90;;;;;;4951000;28;20106;-85
2023/10/11 00:40:32;;;;;;;2.60;0.88;;;15.90;99.90;;;;;;4939912;28;20026;-85
2023/10/11 00:42:58;;;;;;;2.63;0.90;;;15.80;99.90;;;;;;4951857;28;20049;-85
2023/10/11 00:45:26;;;;;;;4.68;0.98;;;15.80;99.90;;;;;;4955074;28;20031;-85
2023/10/11 00:47:53;;;;;;;2.35;0.80;;;15.80;99.90;;;;;;4968976;28;20062;-85
2023/10/11 00:50:22;;;;;;;3.40;0.90;;;15.90;99.90;;;;;;4938828;28;20058;-85
2023/10/11 00:52:50;;;;;;;2.53;1.10;;;16.00;99.90;;;;;;4968272;28;20510;-85
2023/10/11 00:55:23;;;;;;;3.88;1.23;;;15.90;99.90;;;;;;4968191;28;20026;-85
2023/10/11 00:57:49;;;;;;;3.58;0.88;;;15.90;99.90;;;;;;4968847;28;20058;-86
2023/10/11 01:00:19;;;;;;;2.78;1.00;;;15.90;99.90;;;;;;4951345;28;22027;-85
2023/10/11 01:02:45;;;;;;;2.50;0.82;;;16.00;99.90;;;;;;4953837;28;20035;-85
2023/10/11 01:05:12;;;;;;;6.30;1.33;;;16.00;99.90;;;;;;4953575;28;20031;-86
2023/10/11 01:07:38;;;;;;;4.05;1.05;;;16.00;99.90;;;;;;4952280;28;20115;-85
2023/10/11 01:10:08;;;;;;;2.33;0.93;;;16.00;99.90;;;;;;4939113;28;20027;-84
2023/10/11 01:12:34;;;;;;;3.65;1.20;;;16.00;99.90;;;;;;4953338;28;20062;-85
2023/10/11 01:15:01;;;;;;;2.65;0.95;;;16.10;99.90;;;;;;4952479;28;20031;-85
2023/10/11 01:17:27;;;;;;;2.78;0.80;;;16.10;99.90;;;;;;4968247;28;20030;-86
2023/10/11 01:19:53;;;;;;;2.88;0.95;;;16.00;99.90;;;;;;4955291;28;20089;-85
2023/10/11 01:22:19;;;;;;;3.58;0.90;;;16.00;99.90;;;;;;4952040;28;20165;-85
2023/10/11 01:24:47;;;;;;;3.28;0.80;;;15.90;99.90;;;;;;4953516;28;20022;-85
2023/10/11 01:27:15;;;;;;;3.05;0.98;;;15.90;99.90;;;;;;4952404;28;20019;-85
2023/10/11 01:29:41;;;;;;;3.10;0.77;;;16.00;99.90;;;;;;4952869;28;20050;-86
2023/10/11 01:32:07;;;;;;;4.68;1.40;;;16.00;99.90;;;;;;4937246;28;20113;-86
2023/10/11 01:34:32;;;;;;;4.57;1.05;;;16.00;99.90;;;;;;4954820;28;20146;-85
2023/10/11 01:36:59;;;;;;;5.20;1.10;;;16.00;99.90;;;;;;4952473;28;20038;-85
2023/10/11 01:39:24;;;;;;;3.90;1.27;;;16.00;99.90;;;;;;4969386;28;20487;-86
2023/10/11 01:41:54;;;;;;;3.60;1.00;;;16.00;99.90;;;;;;4968834;28;20023;-85
2023/10/11 01:44:22;;;;;;;3.92;1.30;;;16.10;99.90;;;;;;4969058;28;20379;-85
2023/10/11 01:46:48;;;;;;;4.18;1.20;;;16.00;99.90;;;;;;4950009;28;20038;-86
2023/10/11 01:49:14;;;;;;;3.80;1.02;;;16.10;99.90;;;;;;4969042;28;20118;-85
2023/10/11 01:51:46;;;;;;;4.88;1.42;;;16.00;99.90;;;;;;4967089;28;20051;-85
2023/10/11 01:54:15;;;;;;;4.93;0.98;;;16.00;99.90;;;;;;4966383;28;20073;-86
2023/10/11 01:56:41;;;;;;;3.13;1.20;;;16.10;99.90;;;;;;4950266;28;20019;-85
2023/10/11 01:59:11;;;;;;;4.88;1.00;;;16.00;99.90;;;;;;4953346;28;20022;-86
2023/10/11 02:01:41;;;;;;;2.97;0.80;;;15.90;99.90;;;;;;4934056;28;20041;-85
2023/10/11 02:04:13;;;;;;;3.80;0.93;;;15.80;99.90;;;;;;4951200;28;20043;-85
2023/10/11 02:06:40;;;;;;;2.30;0.80;;;15.90;99.90;;;;;;4967787;28;20031;-88
2023/10/11 02:09:05;;;;;;;3.17;1.00;;;15.90;99.90;;;;;;4952589;28;20061;-85
2023/10/11 02:11:31;;;;;;;5.75;1.15;;;15.90;99.90;;;;;;4965873;28;20066;-85
2023/10/11 02:13:58;;;;;;;2.63;1.15;;;15.90;99.90;;;;;;4970804;28;20046;-85
2023/10/11 02:16:25;;;;;;;2.63;0.98;;;15.90;99.90;;;;;;4951873;28;20031;-86
2023/10/11 02:18:59;;;;;;;3.20;1.35;;;15.80;99.90;;;;;;4935758;28;20052;-85
2023/10/11 02:21:29;;;;;;;6.28;1.50;;;15.90;99.90;;;;;;4952280;28;20059;-88
2023/10/11 02:23:56;;;;;;;4.13;1.00;;;15.90;99.90;;;;;;4965401;28;20415;-84
2023/10/11 02:26:31;;;;;;;3.42;1.30;;;15.90;99.90;;;;;;4953425;28;20041;-85
2023/10/11 02:29:02;;;;;;;3.00;1.00;;;15.90;99.90;;;;;;4967312;28;20023;-86
2023/10/11 02:31:33;;;;;;;5.00;1.20;;;15.90;99.90;;;;;;4950570;28;20086;-85
2023/10/11 02:34:14;;;;;;;3.92;1.33;;;15.90;99.90;;;;;;4967981;28;20039;-86
2023/10/11 02:36:44;;;;;;;3.50;1.27;;;15.90;99.90;;;;;;4937454;28;20039;-87
2023/10/11 02:39:20;;;;;;;3.17;1.17;;;15.90;99.90;;;;;;4947212;28;20460;-86
2023/10/11 02:41:46;;;;;;;2.90;1.17;;;15.80;99.90;;;;;;4965796;28;20086;-86
2023/10/11 02:44:13;;;;;;;2.42;0.77;;;15.80;99.90;;;;;;4950400;28;20038;-86
2023/10/11 02:46:42;;;;;;;3.13;1.35;;;15.80;99.90;;;;;;4951349;28;20171;-86
2023/10/11 02:49:18;;;;;;;3.00;0.90;;;15.90;99.90;;;;;;4968141;28;20038;-86
2023/10/11 02:51:54;;;;;;;6.20;1.58;;;15.80;99.90;;;;;;4965616;28;20048;-87
2023/10/11 02:54:20;;;;;;;3.90;1.27;;;15.90;99.90;;;;;;4951867;28;20552;-85
2023/10/11 02:56:49;;;;;;;5.00;1.10;;;15.90;99.90;;;;;;4968291;28;20026;-86
2023/10/11 02:59:22;;;;;;;2.63;1.10;;;15.80;99.90;;;;;;4949740;28;20058;-86
2023/10/11 03:01:59;;;;;;;3.20;1.38;;;15.80;99.90;;;;;;4966436;28;20121;-85
2023/10/11 03:04:39;;;;;;;5.78;1.30;;;15.80;99.90;;;;;;4965586;28;20034;-86
2023/10/11 03:07:20;;;;;;;2.15;0.77;;;15.80;99.90;;;;;;4951023;28;20030;-86
2023/10/11 03:09:47;;;;;;;2.05;0.70;;;15.70;99.90;;;;;;4967774;28;20098;-86
2023/10/11 03:12:19;;;;;;;3.30;1.10;;;15.60;99.90;;;;;;4949069;28;20027;-86
2023/10/11 03:14:46;;;;;;;4.75;1.38;;;15.50;99.90;;;;;;4950774;28;20034;-86
2023/10/11 03:17:16;;;;;;;2.58;1.27;;;15.50;99.90;;;;;;4968412;28;20053;-88
2023/10/11 03:19:43;;;;;;;2.40;0.90;;;15.50;99.90;;;;;;4953741;28;20554;-87
2023/10/11 03:22:14;;;;;;;2.78;1.20;;;15.40;99.90;;;;;;4954004;28;20050;-87
2023/10/11 03:24:49;;;;;;;3.20;1.00;;;15.40;99.90;;;;;;4965299;28;20077;-88
2023/10/11 03:27:15;;;;;;;;;;;15.30;99.90;;;;;;4968419;28;20038;-85
2023/10/11 03:29:41;;;;;;;5.57;1.00;;;15.40;99.90;;;;;;4949882;28;19957;-87
2023/10/11 03:32:06;;;;;;;3.15;0.82;;;15.30;99.90;;;;;;4947023;28;20054;-87
2023/10/11 03:34:33;;;;;;;2.95;0.70;;;15.30;99.90;;;;;;4962194;28;20071;-85
2023/10/11 03:37:08;;;;;;;3.55;0.90;;;15.20;99.90;;;;;;4969098;28;20046;-86
2023/10/11 03:42:06;;;;;;;2.38;0.90;;;15.20;99.90;;;;;;4950790;28;20078;-88
2023/10/11 03:44:36;;;;;;;2.25;0.65;;;15.10;99.90;;;;;;4949499;28;20101;-87
2023/10/11 03:47:08;;;;;;;3.33;1.45;;;15.00;99.90;;;;;;4949675;28;20035;-86
2023/10/11 03:52:19;;;;;;;5.15;1.00;;;14.90;99.90;;;;;;4953468;28;20046;-86
2023/10/11 03:54:46;;;;;;;2.10;0.73;;;14.90;99.90;;;;;;4964111;28;20054;-88
2023/10/11 03:57:12;;;;;;;4.85;0.90;;;14.80;99.90;;;;;;4950775;28;20038;-86
2023/10/11 03:59:39;;;;;;;2.92;1.02;;;14.80;99.90;;;;;;4948601;28;20037;-87
2023/10/11 04:02:10;;;;;;;2.88;0.88;;;14.70;99.90;;;;;;4948837;28;20504;-86
2023/10/11 04:04:42;;;;;;;3.08;0.85;;;14.70;99.90;;;;;;4963143;28;20034;-89
2023/10/11 04:07:12;;;;;;;2.13;0.70;;;14.70;99.90;;;;;;4951773;28;20031;-86
2023/10/11 04:09:44;;;;;;;;;;;14.80;99.90;;;;;;4950304;28;20042;-85
2023/10/11 04:12:10;;;;;;;2.88;1.40;;;14.80;99.90;;;;;;4932677;28;20009;-85
2023/10/11 04:14:46;;;;;;;4.15;1.20;;;14.70;99.90;;;;;;4954855;28;20117;-84
2023/10/11 04:19:49;;;;;;;7.30;2.13;;;14.80;99.90;;;;;;4953102;28;20039;-88
2023/10/11 04:22:23;;;;;;;5.05;2.17;;;14.90;99.90;;;;;;4953739;28;20039;-87
2023/10/11 04:24:55;;;;;;;2.67;1.48;;;15.00;99.90;;;;;;4968664;28;20526;-86
2023/10/11 04:29:50;;;;;;;3.88;2.08;;;14.80;99.90;;;;;;4969489;28;20027;-86
2023/10/11 04:32:32;;;;;;;3.53;1.67;;;14.80;99.90;;;;;;4952631;28;20488;-85
2023/10/11 04:35:00;;;;;;;3.03;1.50;;;14.70;99.90;;;;;;4954644;28;20108;-85
2023/10/11 04:37:33;;;;;;;3.97;1.58;;;14.70;99.90;;;;;;4951526;28;20035;-85
2023/10/11 04:40:22;;;;;;;4.07;1.63;;;14.70;99.90;;;;;;4969037;28;20026;-86
2023/10/11 04:42:45;;;;;;;2.95;1.20;;;14.70;99.90;;;;;;4969397;28;20079;-85
2023/10/11 04:45:21;;;;;;;3.53;1.10;;;14.60;99.90;;;;;;4952820;28;20426;-87
2023/10/11 04:47:56;;;;;;;3.33;1.25;;;14.60;99.90;;;;;;4953006;28;20022;-86
2023/10/11 04:50:23;;;;;;;3.60;1.30;;;14.60;99.90;;;;;;4952023;28;20046;-85
2023/10/11 04:52:49;;;;;;;3.38;1.45;;;14.60;99.90;;;;;;4971808;28;20061;-87
2023/10/11 04:55:19;;;;;;;3.78;1.40;;;14.60;99.90;;;;;;4952123;28;20400;-86
2023/10/11 05:00:43;;;;;;;3.90;1.27;;;14.50;99.90;;;;;;4967335;28;20027;-86
2023/10/11 05:03:10;;;;;;;3.05;1.38;;;14.50;99.90;;;;;;4966131;28;20046;-86
2023/10/11 05:05:36;;;;;;;2.80;0.90;;;14.50;99.90;;;;;;4953106;28;20037;-86
2023/10/11 05:08:04;;;;;;;4.15;1.40;;;14.40;99.90;;;;;;4954372;28;20038;-85
2023/10/11 05:10:43;;;;;;;3.28;1.35;;;14.40;99.90;;;;;;4937756;28;20025;-86
2023/10/11 05:13:13;;;;;;;6.68;1.35;;;14.40;99.90;;;;;;4952353;28;20061;-87
2023/10/11 05:15:47;;;;;;;4.57;1.48;;;14.40;99.90;;;;;;4950869;28;20035;-87
2023/10/11 05:18:23;;;;;;;3.05;1.05;;;14.30;99.90;;;;;;4937694;28;20031;-87
2023/10/11 05:21:00;;;;;;;2.53;1.15;;;14.30;99.90;;;;;;4954685;28;20030;-87
2023/10/11 05:23:41;;;;;;;2.25;1.02;;;14.20;99.90;;;;;;4972077;28;20043;-86
2023/10/11 05:26:36;;;;;;;2.53;1.35;;;14.20;99.90;;;;;;4967543;28;20030;-87
2023/10/11 05:29:09;;;;;;;3.03;0.95;;;14.20;99.90;;;;;;4968583;28;20035;-88
2023/10/11 05:31:44;;;;;;;2.45;1.00;;;14.20;99.90;;;;;;4953680;28;20254;-86
2023/10/11 05:34:45;;;;;;;4.03;0.90;;;14.20;99.90;;;;;;4949563;28;20050;-86
2023/10/11 05:50:54;;;;;;;2.97;2.13;;;14.20;99.90;;;;;;4970220;28;20093;-85
2023/10/11 05:53:21;;;;;;;4.00;1.50;;;14.30;99.90;;;;;;4951201;28;20057;-87
2023/10/11 05:55:46;;;;;;;3.20;1.20;;;14.30;99.90;;;;;;4936871;28;20122;-85
2023/10/11 05:58:13;;;;;;;3.90;1.85;;;14.30;99.90;;;;;;4946863;28;20098;-86
2023/10/11 06:00:39;;;;;;;6.38;3.00;;;14.40;99.90;;;;;;4955490;28;20495;-88
2023/10/11 06:03:06;;;;;;;4.88;3.00;;;14.50;99.90;;;;;;4966069;28;20142;-87
2023/10/11 06:05:39;;;;;;;6.22;2.90;;;14.60;99.90;;;;;;4952907;28;20030;-86
2023/10/11 06:08:06;;;;;;;4.00;2.15;;;14.70;99.90;;;;;;4972868;28;20056;-86
2023/10/11 06:10:41;;;;;;;5.38;2.40;;;14.70;99.90;;;;;;4951316;28;20053;-86
2023/10/11 06:13:16;;;;;;;7.40;2.70;;;14.70;99.90;;;;;;4949580;28;20075;-86
2023/10/11 06:15:55;;;;;;;5.30;3.00;;;14.70;99.90;;;;;;4961560;28;20039;-86
2023/10/11 06:18:39;;;;;;;7.13;3.40;;;14.80;99.90;;;;;;4934921;28;20391;-86
2023/10/11 06:21:05;;;;;;;6.22;2.67;;;14.90;99.90;;;;;;4951529;28;22104;-85
2023/10/11 06:23:32;;;;;;;5.93;3.10;;;14.90;99.90;;;;;;4954105;28;20051;-85
2023/10/11 06:25:59;;;;;;;8.82;3.45;;;15.00;99.90;;;;;;4933159;28;20026;-85
2023/10/11 06:28:31;;;;;;;7.53;3.70;;;15.00;99.90;;;;;;4975642;28;20034;-84
2023/10/11 06:31:00;;;;;;;7.10;4.07;;;15.10;99.90;;;;;;4935528;28;20101;-88
2023/10/11 06:33:27;;;;;;;7.93;5.23;;;15.10;99.90;;;;;;4965193;28;20031;-86
2023/10/11 06:35:53;;;;;;;7.55;4.72;;;15.30;99.90;;;;;;4949374;28;20022;-86
2023/10/11 06:38:21;;;;;;;7.75;5.03;;;15.30;99.90;;;;;;4954134;28;20050;-85
2023/10/11 06:41:25;;;;;;;11.80;5.88;;;15.30;99.90;;;;;;4951081;28;20089;-86
2023/10/11 06:43:37;;;;;;;9.73;6.00;;;15.40;99.90;;;;;;4950236;28;20049;-89
2023/10/11 06:46:03;;;;;;;11.77;6.53;;;15.40;99.90;;;;;;4967506;28;20511;-89
2023/10/11 06:48:29;;;;;;;9.30;5.80;;;15.60;99.90;;;;;;4952987;28;20038;-85
2023/10/11 06:50:55;;;;;;;14.65;5.22;;;15.60;99.90;;;;;;4957436;28;20093;-87
2023/10/11 06:53:21;;;;;;;7.07;5.53;;;15.60;99.90;;;;;;4951608;28;20034;-85
2023/10/11 06:55:50;;;;;;;9.38;5.47;;;15.60;99.90;;;;;;4935887;28;20110;-84
2023/10/11 06:58:16;;;;;;;14.40;6.30;;;15.60;99.90;;;;;;4952189;28;20130;-87
2023/10/11 07:00:53;;;;;;;12.13;6.55;;;15.70;99.90;;;;;;4949325;28;20121;-84
2023/10/11 07:05:56;;;;;;;9.90;5.57;;;15.80;99.90;;;;;;4969683;28;20034;-87
2023/10/11 07:08:31;;;;;;;6.25;4.40;;;15.90;99.90;;;;;;4946489;28;20027;-89
2023/10/11 07:11:16;;;;;;;9.80;6.03;;;16.00;99.90;;;;;;4937159;28;20042;-84
2023/10/11 07:13:57;;;;;;;11.57;6.28;;;16.00;99.90;;;;;;4960729;28;20035;-89
2023/10/11 07:16:31;;;;;;;9.88;5.45;;;16.10;99.90;;;;;;4978122;28;20129;-87
2023/10/11 07:18:58;;;;;;;11.52;6.20;;;16.20;99.90;;;;;;4932944;28;20035;-87
2023/10/11 07:24:19;;;;;;;12.43;7.10;;;16.20;99.90;;;;;;4965238;28;20035;-88
2023/10/11 07:29:16;;;;;;;13.68;6.72;;;16.20;99.90;;;;;;4977759;28;20388;-88
2023/10/11 07:31:51;;;;;;;11.70;6.50;;;16.20;99.90;;;;;;4953238;28;20039;-87
2023/10/11 07:34:20;;;;;;;12.02;6.70;;;16.30;99.90;;;;;;4968128;28;20066;-85
2023/10/11 07:36:48;;;;;;;10.80;6.30;;;16.30;99.90;;;;;;4955672;28;20443;-87
2023/10/11 07:42:09;;;;;;;11.45;7.93;;;16.30;99.90;;;;;;4953264;28;20035;-87
2023/10/11 07:44:40;;;;;;;13.90;6.50;;;16.30;99.90;;;;;;4966081;28;20142;-85
2023/10/11 07:47:15;;;;;;;15.90;5.88;;;16.40;99.90;;;;;;4930772;28;20031;-84
2023/10/11 07:49:45;;;;;;;10.02;5.40;;;16.40;99.90;;;;;;4949941;28;20539;-87
2023/10/11 07:52:13;;;;;;;10.95;6.13;;;16.50;99.90;;;;;;4966014;28;20129;-85
2023/10/11 07:54:39;;;;;;;8.40;4.72;;;16.50;99.90;;;;;;4952039;28;20138;-84
2023/10/11 07:57:15;;;;;;;9.93;5.68;;;16.50;99.90;;;;;;4962285;28;20054;-85
2023/10/11 07:59:45;;;;;;;11.57;6.07;;;16.50;99.90;;;;;;4962617;28;20289;-82
2023/10/11 08:02:27;;;;;;;8.32;4.88;;;16.60;99.90;;;;;;4971973;28;20442;-86
2023/10/11 08:04:57;;;;;;;11.88;7.63;;;16.60;99.90;;;;;;4964795;28;20038;-85
2023/10/11 08:07:23;;;;;;;13.80;7.05;;;16.40;99.90;;;;;;4965538;28;20062;-86
2023/10/11 08:09:52;;;;;;;11.93;7.53;;;16.40;99.90;;;;;;4965253;28;20388;-89
2023/10/11 08:12:23;;;;;;;13.52;7.28;;;16.40;99.90;;;;;;4948662;28;20464;-86
2023/10/11 08:14:49;;;;;;;13.85;8.88;;;16.40;99.90;;;;;;4951294;28;20543;-84
2023/10/11 08:17:16;;;;;;;19.77;8.70;;;16.40;99.90;;;;;;4949134;28;20121;-85
2023/10/11 08:19:47;;;;;;;9.45;6.28;;;16.40;99.90;;;;;;4963730;28;20023;-84
2023/10/11 08:22:16;;;;;;;10.45;6.80;;;16.40;99.90;;;;;;4946397;28;20039;-84
2023/10/11 08:24:50;;;;;;;9.20;5.55;;;16.40;99.90;;;;;;4969210;28;20053;-84
2023/10/11 08:30:01;;;;;;;12.50;8.02;;;16.70;99.90;;;;;;4950037;28;20046;-85
2023/10/11 08:32:29;;;;;;;9.80;7.07;;;16.80;99.90;;;;;;4948400;28;20031;-85
2023/10/11 08:34:55;;;;;;;11.45;7.78;;;16.80;99.90;;;;;;4963834;28;20045;-86
2023/10/11 08:37:20;;;;;;;12.48;8.20;;;16.90;99.90;;;;;;4950505;28;20066;-85
2023/10/11 08:39:46;;;;;;;11.90;7.03;;;17.00;99.90;;;;;;4953195;28;20459;-85
2023/10/11 08:42:14;;;;;;;10.38;5.95;;;17.10;99.90;;;;;;4952510;28;20031;-88
2023/10/11 08:44:45;;;;;;;15.13;7.93;;;17.30;99.90;;;;;;4933448;28;20146;-83
2023/10/11 08:47:16;;;;;;;10.73;5.53;;;17.50;99.90;;;;;;4965590;28;20038;-84
2023/10/11 08:49:48;;;;;;;10.00;6.45;;;17.70;99.90;;;;;;4932747;28;20407;-84
2023/10/11 08:52:23;;;;;;;11.52;7.35;;;17.80;99.90;;;;;;4951936;28;20569;-85
2023/10/11 08:54:49;;;;;;;11.55;7.75;;;17.70;99.90;;;;;;4931276;28;20106;-85
2023/10/11 08:57:25;;;;;;;12.60;8.48;;;17.70;99.90;;;;;;4944145;28;20495;-87
2023/10/11 08:59:57;;;;;;;18.35;9.38;;;17.80;99.90;;;;;;4966891;28;20028;-86
2023/10/11 09:02:24;;;;;;;11.77;6.68;;;17.50;99.90;;;;;;4951396;28;20067;-88
2023/10/11 09:05:28;;;;;;;13.93;8.40;;;17.60;99.90;;;;;;4955650;28;20387;-89
2023/10/11 09:07:54;;;;;;;16.17;9.98;;;17.70;99.90;;;;;;4939307;28;20081;-87
2023/10/11 09:10:28;;;;;;;18.33;9.40;;;17.60;99.90;;;;;;4969249;28;20054;-87
2023/10/11 09:12:59;;;;;;;19.02;10.77;;;17.40;99.90;;;;;;4938804;28;20159;-90
2023/10/11 09:15:42;;;;;;;17.48;11.82;;;17.30;99.90;;;;;;4971301;28;20043;-90
2023/10/11 09:18:16;;;;;;;16.23;11.40;;;17.20;99.90;;;;;;4967679;28;20038;-88
2023/10/11 09:20:55;;;;;;;17.20;11.07;;;17.20;99.90;;;;;;4969369;28;20031;-90
2023/10/11 09:23:34;;;;;;;18.05;12.27;;;17.20;99.90;;;;;;4960553;28;20122;-86
2023/10/11 09:26:00;;;;;;;17.53;11.50;;;17.30;99.90;;;;;;4961495;28;20026;-85
2023/10/11 09:28:33;;;;;;;18.60;12.32;;;17.30;99.90;;;;;;4952368;28;20038;-87
2023/10/11 09:31:16;;;;;;;19.35;13.23;;;17.30;99.90;;;;;;4937159;28;20118;-91
2023/10/11 09:33:50;;;;;;;16.40;10.38;;;17.30;99.90;;;;;;4976223;28;20030;-88
2023/10/11 09:36:20;;;;;;;16.60;11.30;;;17.40;99.90;;;;;;4976096;28;20059;-92
2023/10/11 09:38:55;;;;;;;17.75;10.95;;;17.40;99.90;;;;;;4959636;28;20026;-89
2023/10/11 09:41:29;;;;;;;14.85;9.95;;;17.40;99.90;;;;;;4953624;28;20043;-87
2023/10/11 09:43:57;;;;;;;16.80;12.02;;;17.60;99.90;;;;;;4958712;28;20042;-88
2023/10/11 09:46:29;;;;;;;18.88;11.93;;;17.50;99.90;;;;;;4933693;28;20027;-86
2023/10/11 09:48:56;;;;;;;20.90;11.80;;;17.60;99.90;;;;;;4951944;28;20118;-90
2023/10/11 09:51:24;;;;;;;22.80;12.15;;;17.50;99.90;;;;;;4935945;28;20466;-89
2023/10/11 09:53:51;;;;;;;18.88;12.40;;;17.50;99.90;;;;;;4953072;28;20035;-90
2023/10/11 09:56:50;;;;;;;22.92;13.50;;;17.50;99.90;;;;;;4936668;28;20110;-89
2023/10/11 09:59:22;;;;;;;;;;;17.50;99.90;;;;;;4938630;28;20031;-86
2023/10/11 10:01:55;;;;;;;18.85;12.15;;;17.50;99.90;;;;;;4934613;28;20350;-86
2023/10/11 10:04:51;;;;;;;20.02;13.07;;;17.60;99.90;;;;;;4949022;28;20070;-86
2023/10/11 10:07:32;;;;;;;15.85;12.48;;;17.60;99.90;;;;;;4952426;28;20033;-90
2023/10/11 10:10:02;;;;;;;16.10;11.73;;;17.50;99.90;;;;;;4952146;28;20034;-86
2023/10/11 10:12:54;;;;;;;21.45;12.20;;;17.50;99.90;;;;;;4951011;28;20082;-88
2023/10/11 10:15:23;;;;;;;17.85;12.98;;;17.50;99.90;;;;;;4949999;28;20039;-88
2023/10/11 10:18:00;;;;;;;17.75;12.57;;;17.50;99.90;;;;;;4936564;28;20051;-87
2023/10/11 10:20:33;;;;;;;22.65;14.18;;;17.40;99.90;;;;;;4949795;28;20077;-85
2023/10/11 10:23:22;;;;;;;19.58;11.82;;;17.40;99.90;;;;;;4932748;28;20554;-86
2023/10/11 10:25:48;;;;;;;21.85;13.07;;;17.40;99.90;;;;;;4941159;28;20115;-89
2023/10/11 10:28:35;;;;;;;21.02;13.57;;;17.30;99.90;;;;;;4966735;28;20372;-88
2023/10/11 10:31:16;;;;;;;28.92;16.38;;;17.30;99.90;;;;;;4962987;28;20113;-88
2023/10/11 10:33:50;;;;;;;20.73;13.35;;;17.20;99.90;;;;;;4963458;28;20508;-86
2023/10/11 10:36:28;;;;;;;19.30;13.63;;;17.30;99.90;;;;;;4935436;28;20054;-90
2023/10/11 10:41:36;;;;;;;20.08;12.00;;;17.30;99.90;;;;;;4952810;28;20049;-89
2023/10/11 10:44:08;;;;;;;21.85;13.65;;;17.30;99.90;;;;;;4966406;28;20138;-91
2023/10/11 10:46:50;;;;;;;24.95;15.80;;;17.30;99.90;;;;;;4933382;28;20037;-88
2023/10/11 10:49:20;;;;;;;27.27;16.00;;;17.30;99.90;;;;;;4934644;28;20050;-88
2023/10/11 10:51:51;;;;;;;24.23;16.05;;;17.20;99.90;;;;;;4929163;28;20075;-88
2023/10/11 10:54:26;;;;;;;22.30;15.18;;;17.30;99.90;;;;;;4945977;28;20160;-87
2023/10/11 10:56:53;;;;;;;22.65;15.82;;;17.20;99.90;;;;;;4949875;28;20042;-89
2023/10/11 10:59:20;;;;;;;24.27;15.15;;;17.30;99.90;;;;;;4948206;28;20031;-87
2023/10/11 11:01:48;;;;;;;26.98;15.60;;;17.30;99.90;;;;;;4950717;28;20157;-85
2023/10/11 11:04:20;;;;;;;19.80;13.00;;;17.30;99.90;;;;;;4949956;28;20208;-87
2023/10/11 11:06:47;;;;;;;18.45;12.35;;;17.30;99.90;;;;;;4952063;28;20137;-90
2023/10/11 11:09:27;;;;;;;24.27;15.93;;;17.40;99.90;;;;;;4935912;28;20039;-89
2023/10/11 11:11:55;;;;;;;;;;;17.30;99.90;;;;;;4944881;28;20487;-88
2023/10/11 11:14:23;;;;;;;20.70;13.32;;;17.40;99.90;;;;;;4962898;28;19912;-88
2023/10/11 11:16:59;;;;;;;21.20;14.60;;;17.40;99.90;;;;;;4951776;28;20034;-91
2023/10/11 11:19:25;;;;;;;20.38;13.25;;;17.40;99.90;;;;;;4966245;28;20089;-88
2023/10/11 11:22:12;;;;;;;26.48;16.30;;;17.40;99.90;;;;;;4945841;28;20495;-85
2023/10/11 11:24:43;;;;;;;17.92;12.15;;;17.40;99.90;;;;;;4954279;28;20043;-88
2023/10/11 11:27:35;;;;;;;18.48;12.55;;;17.60;99.90;;;;;;4947334;28;20029;-87
2023/10/11 11:30:16;;;;;;;16.08;12.07;;;17.60;99.90;;;;;;4965298;28;20031;-85
2023/10/11 11:32:41;;;;;;;19.10;12.70;;;17.70;99.90;;;;;;4973957;28;20083;-87
2023/10/11 11:35:28;;;;;;;13.77;9.25;;;17.80;99.90;;;;;;4930901;28;20499;-86
2023/10/11 11:38:06;;;;;;;18.85;12.13;;;17.90;99.90;;;;;;4972318;28;20054;-86
2023/10/11 11:40:46;;;;;;;16.95;12.05;;;18.00;99.90;;;;;;4949810;28;20027;-89
2023/10/11 11:43:12;;;;;;;;;;;18.10;99.90;;;;;;4934960;28;20121;-85
2023/10/11 11:45:38;;;;;;;19.27;11.73;;;18.20;99.90;;;;;;4973760;28;20003;-86
2023/10/11 11:48:05;;;;;;;15.73;10.88;;;18.10;99.90;;;;;;4959090;28;20078;-85
2023/10/11 11:50:33;;;;;;;15.32;10.00;;;18.20;99.90;;;;;;4964181;28;20131;-86
2023/10/11 11:53:03;;;;;;;19.85;13.88;;;18.40;99.90;;;;;;4929933;28;20034;-85
2023/10/11 11:55:29;;;;;;;15.50;10.15;;;18.20;99.90;;;;;;4933263;28;20034;-86
2023/10/11 11:57:55;;;;;;;18.55;10.95;;;18.40;99.90;;;;;;4935460;28;20043;-87
2023/10/11 12:02:52;;;;;;;10.70;7.77;;;18.30;99.90;;;;;;4949333;28;20476;-86
2023/10/11 12:05:18;;;;;;;17.05;10.13;;;18.40;99.90;;;;;;4949897;28;20050;-90
2023/10/11 12:07:44;;;;;;;13.38;8.43;;;18.40;99.90;;;;;;4966475;28;20042;-91
2023/10/11 12:10:25;;;;;;;12.38;9.63;;;18.50;99.90;;;;;;4931551;28;20612;-87
2023/10/11 12:13:01;;;;;;;14.85;8.98;;;18.50;99.90;;;;;;4935283;28;20035;-87
2023/10/11 12:15:28;;;;;;;13.20;8.57;;;18.50;99.90;;;;;;4934875;28;20023;-87
2023/10/11 12:17:54;;;;;;;15.23;9.15;;;18.60;99.90;;;;;;4951889;28;20031;-86
2023/10/11 12:20:22;;;;;;;11.07;9.25;;;18.60;99.90;;;;;;4947481;28;20034;-85
2023/10/11 12:22:50;;;;;;;14.88;9.80;;;18.50;99.90;;;;;;4956592;28;20043;-86
2023/10/11 12:25:24;;;;;;;17.10;10.18;;;18.40;99.90;;;;;;4974749;28;20058;-86
2023/10/11 12:27:50;;;;;;;11.95;9.15;;;18.40;99.90;;;;;;4966513;28;20484;-87
2023/10/11 12:30:19;;;;;;;19.23;11.55;;;18.40;99.90;;;;;;4933814;28;20117;-87
2023/10/11 12:32:49;;;;;;;18.13;10.93;;;18.40;99.90;;;;;;4932308;28;20041;-86
2023/10/11 12:35:15;;;;;;;;;;;18.40;99.90;;;;;;4966723;28;20121;-86
2023/10/11 12:37:41;;;;;;;12.00;8.13;;;18.40;99.90;;;;;;4952421;28;19910;-87
2023/10/11 12:40:21;;;;;;;18.63;11.32;;;18.40;99.90;;;;;;4951527;28;20085;-86
2023/10/11 12:42:48;;;;;;;16.95;11.68;;;18.20;99.90;;;;;;4934799;28;20078;-85
2023/10/11 12:45:17;;;;;;;15.45;10.70;;;18.20;99.90;;;;;;4950626;28;20026;-86
2023/10/11 12:47:43;;;;;;;18.67;11.53;;;18.30;99.90;;;;;;4966146;28;20383;-87
2023/10/11 12:50:09;;;;;;;16.88;9.68;;;18.30;99.90;;;;;;4969330;28;20031;-87
2023/10/11 12:52:38;;;;;;;14.85;9.65;;;18.30;99.90;;;;;;4960427;28;20054;-86
2023/10/11 12:55:07;;;;;;;13.68;10.68;;;18.30;99.90;;;;;;4953296;28;20358;-88
2023/10/11 12:57:38;;;;;;;;;;;18.20;99.90;;;;;;4978093;28;20053;-86
2023/10/11 13:03:18;;;;;;;14.93;9.57;;;18.20;99.90;;;;;;4966702;28;20479;-87
2023/10/11 13:05:46;;;;;;;23.50;14.10;;;18.20;99.90;;;;;;4950947;28;20676;-90
2023/10/11 13:08:14;;;;;;;16.92;12.00;;;18.10;99.90;;;;;;4968279;28;20030;-86
2023/10/11 13:10:48;;;;;;;17.65;13.20;;;18.10;99.90;;;;;;4968010;28;20035;-85
2023/10/11 13:13:15;;;;;;;15.43;10.70;;;18.10;99.90;;;;;;4948883;28;20031;-89
2023/10/11 13:15:53;;;;;;;20.58;12.68;;;18.10;99.90;;;;;;4950939;28;20034;-82
2023/10/11 13:18:19;;;;;;;22.02;15.85;;;18.10;99.90;;;;;;4933663;28;20046;-90
2023/10/11 13:20:45;;;;;;;22.63;14.27;;;18.00;99.90;;;;;;4937071;28;20037;-87
2023/10/11 13:23:11;;;;;;;24.08;16.08;;;18.00;99.90;;;;;;4936005;28;20047;-88
2023/10/11 13:25:37;;;;;;;19.98;13.40;;;18.00;99.90;;;;;;4966157;28;20158;-86
2023/10/11 13:28:03;;;;;;;18.02;12.57;;;18.00;99.90;;;;;;4953265;28;20031;-87
2023/10/11 13:30:36;;;;;;;16.33;10.93;;;18.10;99.90;;;;;;4937687;28;20059;-85
2023/10/11 13:33:05;;;;;;;19.75;14.18;;;18.10;99.90;;;;;;4960603;28;20146;-84
2023/10/11 13:35:35;;;;;;;15.43;10.82;;;18.10;99.90;;;;;;4970579;28;20272;-85
2023/10/11 13:38:04;;;;;;;;;;;18.10;99.90;;;;;;4957696;28;20031;-84
2023/10/11 13:40:32;;;;;;;12.75;8.73;;;18.10;99.90;;;;;;4951911;28;20402;-84
2023/10/11 13:42:57;;;;;;;10.80;7.85;;;18.20;99.90;;;;;;4936555;28;20125;-85
2023/10/11 13:45:23;;;;;;;21.40;14.30;;;18.20;99.90;;;;;;4946964;28;20070;-85
2023/10/11 13:47:51;;;;;;;15.82;11.20;;;18.20;99.90;;;;;;4951254;28;20034;-85
2023/10/11 13:50:30;;;;;;;15.25;10.45;;;18.20;99.90;;;;;;4947322;28;20034;-86
2023/10/11 13:52:56;;;;;;;19.48;11.50;;;18.20;99.90;;;;;;4950186;28;20303;-85